createdAt,value
2019-03-29T00:01:08.698Z,102477.70
2019-03-29T00:03:56.288Z,102480.87
2019-03-29T00:06:42.949Z,102483.64
2019-03-29T00:09:31.582Z,102481.09
2019-03-29T00:15:30.915Z,102485.67
2019-03-29T00:18:18.718Z,102488.34
2019-03-29T00:21:06.770Z,102488.77
2019-03-29T00:24:06.226Z,102485.25
2019-03-29T00:26:41.635Z,102479.09
2019-03-29T00:29:30.070Z,102490.57
2019-03-29T00:32:17.115Z,102488.36
2019-03-29T00:35:05.223Z,102493.73
2019-03-29T00:37:55.745Z,102497.75
2019-03-29T00:40:38.742Z,102496.46
2019-03-29T00:43:26.405Z,102495.20
2019-03-29T00:46:14.513Z,102494.74
2019-03-29T00:49:02.379Z,102495.17
2019-03-29T00:51:49.184Z,102492.09
2019-03-29T00:54:38.978Z,102485.93
2019-03-29T00:57:27.483Z,102485.05
2019-03-29T01:00:14.423Z,102490.81
2019-03-29T01:03:01.207Z,102486.39
2019-03-29T01:05:49.447Z,102482.44
2019-03-29T01:08:38.132Z,102483.78
2019-03-29T01:11:24.732Z,102477.18
2019-03-29T01:17:19.999Z,102482.38
2019-03-29T01:23:11.685Z,102483.54
2019-03-29T01:26:00.939Z,102479.22
2019-03-29T01:28:46.937Z,102481.94
2019-03-29T01:31:34.054Z,102478.75
2019-03-29T01:40:35.152Z,102473.80
2019-03-29T01:43:22.126Z,102473.66
2019-03-29T01:46:08.809Z,102472.80
2019-03-29T01:48:56.768Z,102468.00
2019-03-29T01:51:43.937Z,102463.75
2019-03-29T01:54:32.315Z,102459.64
2019-03-29T01:57:19.665Z,102454.52
2019-03-29T02:03:13.390Z,102449.92
2019-03-29T02:06:00.195Z,102448.23
2019-03-29T02:08:47.643Z,102439.06
2019-03-29T02:11:41.921Z,102439.59
2019-03-29T02:14:28.936Z,102442.56
2019-03-29T02:17:17.003Z,102439.38
2019-03-29T02:20:04.126Z,102430.83
2019-03-29T02:22:50.848Z,102428.09
2019-03-29T02:25:38.123Z,102430.09
2019-03-29T02:28:25.501Z,102420.98
2019-03-29T02:31:12.706Z,102419.75
2019-03-29T02:34:01.122Z,102418.36
2019-03-29T02:36:47.843Z,102417.06
2019-03-29T02:39:36.287Z,102417.01
2019-03-29T02:42:24.007Z,102416.33
2019-03-29T02:45:11.094Z,102413.64
2019-03-29T02:47:58.776Z,102421.50
2019-03-29T02:50:46.611Z,102420.39
2019-03-29T02:53:33.663Z,102415.49
2019-03-29T02:56:20.501Z,102415.31
2019-03-29T02:59:08.436Z,102412.83
2019-03-29T03:01:55.487Z,102412.03
2019-03-29T03:04:42.887Z,102408.59
2019-03-29T03:07:33.565Z,102404.72
2019-03-29T03:10:20.834Z,102406.13
2019-03-29T03:13:12.172Z,102403.56
2019-03-29T03:16:00.688Z,102408.50
2019-03-29T03:18:48.726Z,102409.41
2019-03-29T03:21:36.242Z,102408.59
2019-03-29T03:24:23.975Z,102397.64
2019-03-29T03:27:11.313Z,102403.84
2019-03-29T03:29:58.404Z,102402.54
2019-03-29T03:32:45.728Z,102396.44
2019-03-29T03:38:39.108Z,102391.09
2019-03-29T03:41:26.523Z,102393.70
2019-03-29T03:44:14.653Z,102390.39
2019-03-29T03:47:02.272Z,102390.98
2019-03-29T03:49:50.030Z,102393.72
2019-03-29T03:52:37.141Z,102389.80
2019-03-29T03:55:24.956Z,102385.86
2019-03-29T03:58:12.302Z,102388.95
2019-03-29T04:00:59.327Z,102390.73
2019-03-29T04:06:53.517Z,102391.20
2019-03-29T04:09:49.266Z,102392.53
2019-03-29T04:12:29.050Z,102392.64
2019-03-29T04:15:17.031Z,102387.17
2019-03-29T04:18:03.947Z,102391.73
2019-03-29T04:23:57.201Z,102394.12
2019-03-29T04:26:44.925Z,102394.61
2019-03-29T04:29:32.449Z,102394.21
2019-03-29T04:35:26.213Z,102400.47
2019-03-29T04:38:13.451Z,102404.47
2019-03-29T04:41:00.654Z,102404.56
2019-03-29T04:43:48.156Z,102409.98
2019-03-29T04:46:36.339Z,102408.94
2019-03-29T04:49:24.498Z,102405.55
2019-03-29T04:52:11.799Z,102409.63
2019-03-29T04:54:59.135Z,102410.11
2019-03-29T04:57:46.163Z,102410.52
2019-03-29T05:00:33.759Z,102418.26
2019-03-29T05:03:21.705Z,102418.35
2019-03-29T05:06:08.577Z,102411.76
2019-03-29T05:08:55.444Z,102412.66
2019-03-29T05:11:42.459Z,102409.44
2019-03-29T05:14:30.870Z,102416.72
2019-03-29T05:17:18.723Z,102423.39
2019-03-29T05:20:06.030Z,102409.66
2019-03-29T05:22:53.484Z,102410.73
2019-03-29T05:25:40.489Z,102407.33
2019-03-29T05:28:27.803Z,102417.09
2019-03-29T05:31:14.921Z,102414.13
2019-03-29T05:34:02.262Z,102418.61
2019-03-29T05:36:49.567Z,102406.70
2019-03-29T05:39:37.176Z,102406.55
2019-03-29T05:42:24.344Z,102404.77
2019-03-29T05:45:11.842Z,102406.73
2019-03-29T05:47:58.750Z,102407.23
2019-03-29T05:53:51.926Z,102415.97
2019-03-29T05:56:38.841Z,102413.23
2019-03-29T05:59:27.165Z,102412.28
2019-03-29T06:02:15.505Z,102412.86
2019-03-29T06:05:03.340Z,102407.07
2019-03-29T06:07:51.394Z,102410.77
2019-03-29T06:10:48.962Z,102415.22
2019-03-29T06:13:30.220Z,102411.22
2019-03-29T06:16:18.255Z,102419.95
2019-03-29T06:19:09.297Z,102408.83
2019-03-29T06:21:56.889Z,102416.67
2019-03-29T06:24:44.523Z,102413.92
2019-03-29T06:27:33.454Z,102420.42
2019-03-29T06:30:20.946Z,102413.34
2019-03-29T06:33:07.843Z,102410.23
2019-03-29T06:35:55.374Z,102410.63
2019-03-29T06:38:42.988Z,102416.81
2019-03-29T06:41:30.804Z,102415.03
2019-03-29T06:44:19.253Z,102414.55
2019-03-29T06:47:06.899Z,102413.50
2019-03-29T06:49:54.461Z,102413.41
2019-03-29T06:52:42.375Z,102415.80
2019-03-29T06:55:29.356Z,102411.64
2019-03-29T06:58:16.341Z,102415.33
2019-03-29T07:01:03.825Z,102410.08
2019-03-29T07:03:51.319Z,102412.19
2019-03-29T07:06:38.563Z,102409.30
2019-03-29T07:09:26.471Z,102409.63
2019-03-29T07:12:13.178Z,102416.52
2019-03-29T07:15:01.164Z,102410.61
2019-03-29T07:17:49.054Z,102418.00
2019-03-29T07:23:43.185Z,102410.56
2019-03-29T07:26:30.870Z,102410.73
2019-03-29T07:29:18.784Z,102419.80
2019-03-29T07:32:05.967Z,102416.00
2019-03-29T07:34:53.186Z,102416.65
2019-03-29T07:37:40.000Z,102412.85
2019-03-29T07:40:27.477Z,102412.11
2019-03-29T07:43:14.903Z,102418.88
2019-03-29T07:46:02.964Z,102417.27
2019-03-29T07:48:50.342Z,102412.13
2019-03-29T07:54:53.501Z,102413.48
2019-03-29T07:57:39.060Z,102416.44
2019-03-29T08:00:25.801Z,102413.88
2019-03-29T08:03:13.914Z,102415.86
2019-03-29T08:06:01.545Z,102411.98
2019-03-29T08:08:58.482Z,102413.55
2019-03-29T08:11:46.885Z,102410.66
2019-03-29T08:14:34.142Z,102410.69
2019-03-29T08:17:20.873Z,102419.75
2019-03-29T08:20:37.313Z,102412.20
2019-03-29T08:22:55.006Z,102410.63
2019-03-29T08:25:41.746Z,102408.83
2019-03-29T08:28:28.501Z,102409.89
2019-03-29T08:31:15.242Z,102405.73
2019-03-29T08:34:02.282Z,102411.66
2019-03-29T08:36:50.144Z,102409.92
2019-03-29T08:39:37.407Z,102410.16
2019-03-29T08:45:31.038Z,102411.70
2019-03-29T08:48:18.585Z,102412.84
2019-03-29T08:51:05.580Z,102407.09
2019-03-29T08:53:53.624Z,102408.89
2019-03-29T08:56:41.469Z,102412.00
2019-03-29T08:59:43.121Z,102410.80
2019-03-29T09:02:30.547Z,102413.00
2019-03-29T09:05:17.777Z,102406.30
2019-03-29T09:08:04.891Z,102410.05
2019-03-29T09:10:54.344Z,102405.58
2019-03-29T09:13:41.779Z,102405.33
2019-03-29T09:16:28.741Z,102403.30
2019-03-29T09:19:16.211Z,102404.86
2019-03-29T09:22:03.968Z,102401.54
2019-03-29T09:24:51.288Z,102403.63
2019-03-29T09:27:38.644Z,102397.18
2019-03-29T09:30:26.135Z,102402.72
2019-03-29T09:33:13.029Z,102405.67
2019-03-29T09:35:59.944Z,102399.73
2019-03-29T09:38:51.159Z,102392.28
2019-03-29T09:41:38.263Z,102396.41
2019-03-29T09:44:25.201Z,102392.63
2019-03-29T09:47:12.322Z,102390.74
2019-03-29T09:49:59.069Z,102390.05
2019-03-29T09:52:46.198Z,102390.66
2019-03-29T09:55:33.436Z,102388.97
2019-03-29T09:58:20.756Z,102380.16
2019-03-29T10:01:08.434Z,102378.83
2019-03-29T10:03:55.947Z,102384.14
2019-03-29T10:06:45.280Z,102379.82
2019-03-29T10:09:29.759Z,102378.66
2019-03-29T10:12:16.881Z,102374.34
2019-03-29T10:15:04.080Z,102372.75
2019-03-29T10:17:51.210Z,102371.74
2019-03-29T10:20:39.103Z,102367.14
2019-03-29T10:23:26.223Z,102366.95
2019-03-29T10:26:13.879Z,102366.18
2019-03-29T10:29:01.077Z,102362.86
2019-03-29T10:31:48.728Z,102364.98
2019-03-29T10:34:37.516Z,102360.33
2019-03-29T10:37:22.883Z,102361.28
2019-03-29T10:40:10.345Z,102357.98
2019-03-29T10:42:58.432Z,102342.53
2019-03-29T10:45:44.526Z,102341.06
2019-03-29T10:48:31.391Z,102341.83
2019-03-29T10:51:19.066Z,102327.84
2019-03-29T10:54:06.338Z,102324.64
2019-03-29T10:56:53.630Z,102321.86
2019-03-29T10:59:40.392Z,102318.84
2019-03-29T11:02:28.752Z,102318.41
2019-03-29T11:05:16.005Z,102308.55
2019-03-29T11:08:04.344Z,102310.75
2019-03-29T11:10:51.527Z,102304.47
2019-03-29T11:13:41.026Z,102305.20
2019-03-29T11:16:25.598Z,102307.44
2019-03-29T11:19:27.256Z,102300.51
2019-03-29T11:22:15.081Z,102293.45
2019-03-29T11:25:02.684Z,102296.09
2019-03-29T11:27:50.023Z,102289.30
2019-03-29T11:30:42.477Z,102288.63
2019-03-29T11:33:24.266Z,102286.47
2019-03-29T11:36:11.270Z,102281.48
2019-03-29T11:38:57.904Z,102276.17
2019-03-29T11:41:45.422Z,102268.98
2019-03-29T11:44:32.847Z,102271.23
2019-03-29T11:47:19.616Z,102269.30
2019-03-29T11:50:06.063Z,102261.33
2019-03-29T11:52:53.866Z,102256.62
2019-03-29T11:55:41.376Z,102258.64
2019-03-29T11:58:28.062Z,102247.08
2019-03-29T12:01:14.642Z,102248.59
2019-03-29T12:10:13.582Z,102240.00
2019-03-29T12:13:00.140Z,102229.08
2019-03-29T12:15:47.072Z,102229.31
2019-03-29T12:18:34.034Z,102224.20
2019-03-29T12:21:20.898Z,102224.57
2019-03-29T12:24:07.989Z,102222.31
2019-03-29T12:27:09.506Z,102218.94
2019-03-29T12:29:57.008Z,102214.48
2019-03-29T12:32:51.981Z,102209.83
2019-03-29T12:35:38.764Z,102206.38
2019-03-29T12:38:26.877Z,102198.34
2019-03-29T12:41:15.361Z,102191.33
2019-03-29T12:44:02.876Z,102185.13
2019-03-29T12:46:49.691Z,102181.43
2019-03-29T12:49:36.519Z,102175.15
2019-03-29T12:52:23.822Z,102168.76
2019-03-29T12:55:11.260Z,102165.56
2019-03-29T12:57:58.074Z,102171.11
2019-03-29T13:00:59.272Z,102163.50
2019-03-29T13:03:46.135Z,102158.77
2019-03-29T13:09:39.859Z,102150.64
2019-03-29T13:12:25.962Z,102137.70
2019-03-29T13:15:12.617Z,102142.30
2019-03-29T13:17:59.226Z,102133.25
2019-03-29T13:20:53.245Z,102132.45
2019-03-29T13:23:40.492Z,102124.16
2019-03-29T13:26:27.184Z,102121.19
2019-03-29T13:29:13.983Z,102117.50
2019-03-29T13:32:00.708Z,102109.48
2019-03-29T13:34:51.098Z,102109.57
2019-03-29T13:37:34.634Z,102091.81
2019-03-29T13:40:21.516Z,102094.66
2019-03-29T13:43:09.060Z,102093.41
2019-03-29T13:49:01.888Z,102079.72
2019-03-29T13:51:48.548Z,102078.75
2019-03-29T13:57:42.027Z,102078.92
2019-03-29T14:00:29.085Z,102076.29
2019-03-29T14:03:18.089Z,102070.63
2019-03-29T14:06:05.005Z,102067.53
2019-03-29T14:08:52.115Z,102068.09
2019-03-29T14:11:40.079Z,102062.50
2019-03-29T14:14:38.221Z,102056.22
2019-03-29T14:17:16.517Z,102048.27
2019-03-29T14:20:04.331Z,102055.76
2019-03-29T14:22:51.413Z,102051.92
2019-03-29T14:25:39.026Z,102042.25
2019-03-29T14:28:26.957Z,102040.52
2019-03-29T14:31:14.788Z,102030.79
2019-03-29T14:34:20.869Z,102032.63
2019-03-29T14:37:07.865Z,102032.75
2019-03-29T14:39:56.252Z,102025.81
2019-03-29T14:42:38.312Z,102026.63
2019-03-29T14:45:25.315Z,102017.55
2019-03-29T14:48:14.112Z,102024.89
2019-03-29T14:51:00.946Z,102022.62
2019-03-29T14:53:50.531Z,102017.62
2019-03-29T14:56:37.526Z,102018.11
2019-03-29T15:05:36.814Z,102001.34
2019-03-29T15:08:23.497Z,102008.39
2019-03-29T15:17:21.887Z,101991.58
2019-03-29T15:20:08.926Z,101996.37
2019-03-29T15:22:56.901Z,101986.12
2019-03-29T15:25:58.787Z,101990.34
2019-03-29T15:28:45.688Z,101985.69
2019-03-29T15:31:32.268Z,101979.09
2019-03-29T15:34:18.988Z,101974.37
2019-03-29T15:37:05.744Z,101971.44
2019-03-29T15:39:52.716Z,101971.48
2019-03-29T15:42:39.694Z,101965.68
2019-03-29T15:45:26.625Z,101965.14
2019-03-29T15:48:13.881Z,101967.11
2019-03-29T15:51:01.391Z,101962.05
2019-03-29T16:00:00.145Z,101946.81
2019-03-29T16:02:46.881Z,101944.23
2019-03-29T16:05:33.917Z,101946.20
2019-03-29T16:08:20.728Z,101942.77
2019-03-29T16:11:09.290Z,101942.14
2019-03-29T16:13:54.731Z,101940.66
2019-03-29T16:16:41.442Z,101942.86
2019-03-29T16:22:35.210Z,101936.05
2019-03-29T16:25:22.335Z,101931.12
2019-03-29T16:28:09.756Z,101928.58
2019-03-29T16:30:57.656Z,101926.64
2019-03-29T16:33:44.335Z,101921.77
2019-03-29T16:36:30.987Z,101909.39
2019-03-29T16:39:17.817Z,101910.47
2019-03-29T16:42:19.588Z,101910.78
2019-03-29T16:51:18.487Z,101909.36
2019-03-29T16:54:05.973Z,101900.92
2019-03-29T16:56:52.899Z,101900.71
2019-03-29T16:59:39.724Z,101889.62
2019-03-29T17:02:26.852Z,101892.11
2019-03-29T17:05:13.751Z,101888.09
2019-03-29T17:08:00.750Z,101882.58
2019-03-29T17:10:49.256Z,101891.55
2019-03-29T17:13:37.227Z,101884.80
2019-03-29T17:16:30.274Z,101888.14
2019-03-29T17:19:10.650Z,101882.14
2019-03-29T17:21:57.224Z,101877.34
2019-03-29T17:24:56.453Z,101872.58
2019-03-29T17:27:31.536Z,101872.41
2019-03-29T17:30:19.177Z,101866.89
2019-03-29T17:33:06.523Z,101871.92
2019-03-29T17:35:53.740Z,101866.26
2019-03-29T17:38:41.555Z,101866.69
2019-03-29T17:41:28.724Z,101874.48
2019-03-29T17:47:29.344Z,101864.34
2019-03-29T17:50:17.737Z,101863.64
2019-03-29T17:53:04.256Z,101858.30
2019-03-29T17:56:05.641Z,101859.62
2019-03-29T17:58:52.604Z,101859.77
2019-03-29T18:04:45.431Z,101863.26
2019-03-29T18:07:32.793Z,101859.39
2019-03-29T18:10:19.720Z,101858.94
2019-03-29T18:13:06.296Z,101859.92
2019-03-29T18:25:11.535Z,101859.02
2019-03-29T18:27:58.767Z,101859.80
2019-03-29T18:30:46.999Z,101858.13
2019-03-29T18:33:33.742Z,101860.73
2019-03-29T18:36:21.072Z,101861.53
2019-03-29T18:39:08.089Z,101869.41
2019-03-29T18:41:54.942Z,101873.67
2019-03-29T18:47:47.902Z,101860.59
2019-03-29T19:15:23.706Z,101856.30
2019-03-29T19:24:24.006Z,101851.08
2019-03-29T19:33:22.823Z,101860.30
2019-03-29T19:36:09.939Z,101854.23
2019-03-29T20:22:21.676Z,101852.09
2019-03-29T20:25:08.701Z,101849.52
2019-03-29T20:27:58.955Z,101852.23
2019-03-29T20:30:45.766Z,101846.64
2019-03-29T20:33:33.600Z,101846.34
2019-03-29T20:39:40.793Z,101838.73
2019-03-29T20:45:33.185Z,101838.98
2019-03-29T20:54:31.726Z,101833.55
2019-03-29T21:00:25.087Z,101831.97
2019-03-29T21:06:18.737Z,101826.90
2019-03-29T21:27:42.474Z,101823.28
2019-03-29T21:36:42.518Z,101817.49
2019-03-29T21:42:35.215Z,101819.00
2019-03-29T21:51:33.901Z,101810.00
2019-03-29T21:57:26.960Z,101800.44
2019-03-29T22:03:20.828Z,101802.41
2019-03-29T22:06:07.576Z,101798.89
2019-03-29T22:08:54.783Z,101793.63
2019-03-29T22:48:56.105Z,101771.77
2019-03-29T22:51:57.781Z,101767.41
2019-03-29T23:16:34.107Z,101750.66
2019-03-29T23:41:04.917Z,101730.61
2019-03-29T23:43:51.676Z,101728.92
2019-03-29T23:46:39.346Z,101731.17
2019-03-29T23:49:26.897Z,101729.94
2019-03-29T23:52:15.015Z,101725.20
2019-03-29T23:55:02.370Z,101726.13
